Time;durP1;ratioP1;P1;durP2;ratioP2;P2;SDS_P1;SDS_P2;PMS_P1;PMS_P2;Temp;Humidity;BMP_temperature;BMP_pressure;BME280_temperature;BME280_humidity;BME280_pressure;Samples;Min_cycle;Max_cycle;Signal;HPM_P1;HPM_P2
2022/11/12 00:01:09;;;;;;;22.43;11.73;;;;;;;3.78;100.00;97904.56;4974320;28;20508;-72
2022/11/12 00:03:56;;;;;;;37.27;14.10;;;;;;;3.68;100.00;97909.66;4973044;28;20401;-73
2022/11/12 00:06:41;;;;;;;20.47;12.27;;;;;;;3.53;100.00;97876.25;4982504;28;20444;-72
2022/11/12 00:09:26;;;;;;;44.37;13.50;;;;;;;3.42;100.00;97873.75;4992122;28;20495;-72
2022/11/12 00:12:12;;;;;;;29.60;12.77;;;;;;;3.68;100.00;97909.66;4992330;28;20436;-73
2022/11/12 00:14:57;;;;;;;47.07;12.60;;;;;;;3.57;100.00;97897.47;4993382;28;20435;-73
2022/11/12 00:17:42;;;;;;;49.50;15.13;;;;;;;3.62;100.00;97909.84;4992026;28;20443;-72
2022/11/12 00:20:27;;;;;;;33.97;11.27;;;;;;;3.65;100.00;97899.69;5001383;28;20436;-74
2022/11/12 00:23:13;;;;;;;38.63;11.67;;;;;;;3.72;100.00;97895.03;4992050;28;20463;-72
2022/11/12 00:26:00;;;;;;;33.87;11.03;;;;;;;3.72;100.00;97902.88;4962375;28;20424;-73
2022/11/12 00:28:45;;;;;;;40.23;13.07;;;;;;;3.59;100.00;97878.91;4973261;28;20419;-73
2022/11/12 00:31:30;;;;;;;29.70;11.10;;;;;;;3.80;100.00;97902.47;4973561;28;20416;-73
2022/11/12 00:34:15;;;;;;;25.67;10.53;;;;;;;3.70;100.00;97880.63;4991900;28;20422;-72
2022/11/12 00:37:01;;;;;;;30.13;10.57;;;;;;;3.80;100.00;97915.56;4992543;28;20988;-72
2022/11/12 00:39:46;;;;;;;25.80;9.80;;;;;;;3.77;100.00;97912.66;4991654;28;20423;-72
2022/11/12 00:42:32;;;;;;;15.83;9.40;;;;;;;3.75;100.00;97912.09;4991463;28;20563;-73
2022/11/12 00:45:18;;;;;;;20.03;9.97;;;;;;;3.68;100.00;97903.63;4992862;28;20442;-72
2022/11/12 00:48:03;;;;;;;49.20;14.00;;;;;;;3.44;100.00;97885.53;4992677;28;20446;-72
2022/11/12 00:50:49;;;;;;;60.00;13.57;;;;;;;3.31;100.00;97866.78;4991681;28;20482;-72
2022/11/12 00:53:34;;;;;;;49.93;14.13;;;;;;;3.02;100.00;97822.50;4991467;28;20440;-72
2022/11/12 00:56:19;;;;;;;28.47;9.80;;;;;;;3.49;100.00;97877.00;4991431;28;20951;-72
2022/11/12 00:59:05;;;;;;;31.87;13.20;;;;;;;3.59;100.00;97877.09;4992660;28;20443;-72
2022/11/12 01:01:50;;;;;;;39.67;12.13;;;;;;;3.47;100.00;97847.66;4991439;28;20595;-72
2022/11/12 01:04:35;;;;;;;25.93;10.53;;;;;;;3.47;100.00;97858.94;4991303;28;20427;-72
2022/11/12 01:07:21;;;;;;;32.97;11.57;;;;;;;3.53;100.00;97876.25;4991006;28;20972;-72
2022/11/12 01:10:07;;;;;;;27.53;10.27;;;;;;;3.46;100.00;97873.00;4972844;28;20955;-72
2022/11/12 01:12:53;;;;;;;31.60;9.83;;;;;;;3.29;100.00;97848.75;4972977;28;20428;-73
2022/11/12 01:15:41;;;;;;;39.13;12.17;;;;;;;3.43;100.00;97865.66;4985429;28;20492;-73
2022/11/12 01:18:27;;;;;;;52.97;13.23;;;;;;;3.34;100.00;97861.06;4985192;28;20673;-72
2022/11/12 01:21:13;;;;;;;52.00;11.87;;;;;;;3.32;100.00;97837.00;4992378;28;20447;-73
2022/11/12 01:24:00;;;;;;;34.13;10.33;;;;;;;3.53;100.00;97854.53;4986794;28;20423;-72
2022/11/12 01:26:46;;;;;;;42.17;10.17;;;;;;;3.50;100.00;97852.41;4986522;28;20444;-72
2022/11/12 01:29:31;;;;;;;29.60;12.47;;;;;;;3.56;100.00;97861.91;4992132;28;20982;-72
2022/11/12 01:32:16;;;;;;;59.60;13.60;;;;;;;3.40;100.00;97829.53;4990182;28;20427;-73
2022/11/12 01:35:02;;;;;;;25.23;8.93;;;;;;;3.38;100.00;97833.44;4990958;28;20777;-72
2022/11/12 01:37:47;;;;;;;33.53;10.97;;;;;;;2.82;100.00;97736.84;4991961;28;20535;-73
2022/11/12 01:40:32;;;;;;;16.70;7.33;;;;;;;3.56;100.00;97846.22;4991787;28;20416;-72
2022/11/12 01:43:18;;;;;;;32.30;13.00;;;;;;;3.55;100.00;97855.88;4991735;28;20483;-73
2022/11/12 01:46:25;;;;;;;20.40;10.63;;;;;;;3.47;100.00;97851.09;4991683;28;20419;-73
2022/11/12 01:49:18;;;;;;;27.07;9.87;;;;;;;3.40;100.00;97855.69;4990935;28;20436;-72
2022/11/12 01:52:12;;;;;;;22.33;9.60;;;;;;;3.47;100.00;97845.84;4991928;28;20555;-73
2022/11/12 01:55:04;;;;;;;31.67;10.07;;;;;;;3.50;100.00;97853.22;4991899;28;20942;-72
2022/11/12 01:58:05;;;;;;;47.73;11.70;;;;;;;3.26;100.00;97826.50;4991529;28;20550;-73
2022/11/12 02:00:50;;;;;;;21.73;9.40;;;;;;;3.28;100.00;97828.88;4991797;28;20415;-73
2022/11/12 02:03:36;;;;;;;26.57;9.53;;;;;;;3.48;100.00;97860.50;4991517;28;20666;-73
2022/11/12 02:06:22;;;;;;;46.57;9.40;;;;;;;3.48;100.00;97857.09;4991747;28;20422;-73
2022/11/12 02:09:08;;;;;;;21.93;8.57;;;;;;;3.45;100.00;97855.75;4991721;28;20423;-73
2022/11/12 02:11:53;;;;;;;21.43;7.40;;;;;;;3.49;100.00;97838.56;4991586;28;20442;-72
2022/11/12 02:14:38;;;;;;;17.43;8.47;;;;;;;3.52;100.00;97868.66;4991029;28;20415;-72
2022/11/12 02:17:24;;;;;;;17.63;8.80;;;;;;;3.44;100.00;97867.25;4991642;28;20447;-72
2022/11/12 02:20:11;;;;;;;41.13;10.90;;;;;;;3.54;100.00;97870.00;4991318;28;20423;-73
2022/11/12 02:22:56;;;;;;;13.03;8.20;;;;;;;3.52;100.00;97866.84;4972149;28;20464;-72
2022/11/12 02:25:41;;;;;;;26.30;11.57;;;;;;;3.27;100.00;97832.50;4972278;28;20948;-73
2022/11/12 02:28:30;;;;;;;26.73;10.53;;;;;;;3.41;100.00;97865.13;4971896;28;20440;-73
2022/11/12 02:31:15;;;;;;;17.50;8.37;;;;;;;3.26;100.00;97844.00;4983057;28;20478;-73
2022/11/12 02:34:01;;;;;;;13.27;8.57;;;;;;;3.49;100.00;97863.91;4972729;28;20503;-73
2022/11/12 02:36:46;;;;;;;17.57;10.13;;;;;;;3.27;100.00;97837.75;4975416;28;20448;-72
2022/11/12 02:39:32;;;;;;;9.53;7.43;;;;;;;3.38;100.00;97865.59;4974735;28;20504;-72
2022/11/12 02:42:17;;;;;;;16.70;9.63;;;;;;;3.21;100.00;97823.03;4964561;28;20471;-73
2022/11/12 02:45:23;;;;;;;30.40;11.20;;;;;;;3.17;100.00;97830.53;4974596;28;20424;-72
2022/11/12 02:48:08;;;;;;;44.10;10.60;;;;;;;3.37;100.00;97848.34;4953575;29;20565;-73
2022/11/12 02:50:53;;;;;;;33.30;10.23;;;;;;;3.35;100.00;97854.84;4940335;29;20466;-73
2022/11/12 02:53:38;;;;;;;40.50;10.10;;;;;;;3.22;100.00;97854.16;4953742;29;20790;-72
2022/11/12 02:56:23;;;;;;;36.70;11.07;;;;;;;3.17;100.00;97825.31;4963155;29;20461;-73
2022/11/12 02:59:08;;;;;;;21.10;9.40;;;;;;;3.14;100.00;97825.81;4953894;29;20437;-73
2022/11/12 03:01:54;;;;;;;47.60;13.90;;;;;;;3.23;100.00;97823.59;4953587;29;20461;-73
2022/11/12 03:04:39;;;;;;;21.63;8.73;;;;;;;3.22;100.00;97848.13;4939599;29;20851;-72
2022/11/12 03:07:30;;;;;;;43.77;10.23;;;;;;;3.20;100.00;97843.13;4953530;28;20803;-73
2022/11/12 03:10:15;;;;;;;31.93;9.57;;;;;;;3.28;100.00;97854.22;4953315;29;20982;-73
2022/11/12 03:13:01;;;;;;;17.80;8.87;;;;;;;3.20;100.00;97850.97;4941353;29;21008;-73
2022/11/12 03:15:46;;;;;;;42.53;9.83;;;;;;;3.14;100.00;97853.75;4953463;29;20465;-73
2022/11/12 03:18:32;;;;;;;34.30;9.67;;;;;;;2.92;100.00;97827.56;4939909;29;20561;-73
2022/11/12 03:21:17;;;;;;;37.43;10.63;;;;;;;3.07;100.00;97853.94;4939991;29;20422;-73
2022/11/12 03:24:02;;;;;;;20.63;7.70;;;;;;;3.08;100.00;97842.47;4942288;28;20991;-73
2022/11/12 03:26:48;;;;;;;19.57;7.20;;;;;;;2.88;100.00;97814.22;4974841;28;20565;-72
2022/11/12 03:29:33;;;;;;;34.80;9.67;;;;;;;3.07;100.00;97845.28;4985025;28;20466;-72
2022/11/12 03:32:18;;;;;;;34.87;9.67;;;;;;;2.97;100.00;97825.84;4990247;28;20439;-73
2022/11/12 03:35:04;;;;;;;21.90;9.60;;;;;;;2.96;100.00;97816.44;4993869;28;20792;-72
2022/11/12 03:37:49;;;;;;;31.37;9.77;;;;;;;2.91;100.00;97836.44;4993048;28;20459;-73
2022/11/12 03:40:35;;;;;;;37.30;11.07;;;;;;;2.99;100.00;97849.13;4962967;28;20881;-73
2022/11/12 03:43:20;;;;;;;40.83;10.70;;;;;;;3.03;100.00;97850.22;4977951;28;20537;-73
2022/11/12 03:46:05;;;;;;;31.00;9.30;;;;;;;2.77;100.00;97832.59;4993645;28;20498;-73
2022/11/12 03:48:52;;;;;;;22.47;9.50;;;;;;;3.04;100.00;97843.94;4994039;28;20427;-72
2022/11/12 03:51:37;;;;;;;68.00;10.97;;;;;;;3.10;100.00;97834.38;4992911;28;20506;-72
2022/11/12 03:54:22;;;;;;;72.13;11.50;;;;;;;3.11;100.00;97857.66;4992913;28;20412;-73
2022/11/12 03:57:07;;;;;;;63.57;10.63;;;;;;;3.06;100.00;97854.94;4992977;28;20526;-73
2022/11/12 03:59:52;;;;;;;27.47;9.83;;;;;;;3.03;100.00;97847.59;4993554;28;20418;-72
2022/11/12 04:02:38;;;;;;;41.70;10.07;;;;;;;2.99;100.00;97828.22;4993659;28;20447;-72
2022/11/12 04:08:36;;;;;;;70.47;10.60;;;;;;;3.03;100.00;97844.19;4993806;28;20447;-72
2022/11/12 04:11:22;;;;;;;37.40;11.60;;;;;;;3.06;100.00;97838.47;4993338;28;20442;-73
2022/11/12 04:14:07;;;;;;;21.90;7.00;;;;;;;2.68;100.00;97787.81;4993543;28;20544;-73
2022/11/12 04:23:20;;;;;;;42.00;8.60;;;;;;;2.92;100.00;97822.34;4955839;28;20515;-73
2022/11/12 04:26:23;;;;;;;44.53;9.10;;;;;;;2.83;100.00;97818.59;4972421;28;20479;-73
2022/11/12 04:32:12;;;;;;;15.27;7.10;;;;;;;2.71;100.00;97833.53;4985133;28;20436;-73
2022/11/12 04:34:58;;;;;;;29.17;6.90;;;;;;;2.74;100.00;97841.69;4973790;28;20939;-72
2022/11/12 04:37:44;;;;;;;32.27;8.53;;;;;;;2.78;100.00;97842.78;4984633;28;20471;-72
2022/11/12 04:46:38;;;;;;;22.30;8.67;;;;;;;2.76;100.00;97791.84;4993317;28;20474;-73
2022/11/12 04:49:23;;;;;;;22.47;8.47;;;;;;;3.00;100.00;97836.84;4993074;28;20962;-73
2022/11/12 04:52:08;;;;;;;15.30;7.53;;;;;;;2.80;100.00;97821.66;4992396;28;20943;-72
2022/11/12 04:54:55;;;;;;;46.77;7.30;;;;;;;2.87;100.00;97853.63;4990039;28;20455;-73
2022/11/12 04:57:39;;;;;;;31.77;7.60;;;;;;;2.73;100.00;97834.88;4972783;28;20603;-72
2022/11/12 05:00:25;;;;;;;21.43;8.30;;;;;;;2.64;100.00;97818.03;4974249;28;20532;-72
2022/11/12 05:03:10;;;;;;;38.47;7.90;;;;;;;2.84;100.00;97828.78;4972421;28;20476;-73
2022/11/12 05:06:50;;;;;;;30.67;7.27;;;;;;;3.00;100.00;97845.47;4973933;28;20425;-73
2022/11/12 05:09:09;;;;;;;34.37;9.13;;;;;;;2.90;100.00;97833.03;4974354;28;20813;-73
2022/11/12 05:11:55;;;;;;;18.50;6.00;;;;;;;2.70;100.00;97822.31;4973712;28;20451;-72
2022/11/12 05:14:41;;;;;;;11.23;6.50;;;;;;;2.76;100.00;97855.28;4973038;28;20416;-73
2022/11/12 05:17:26;;;;;;;21.20;6.33;;;;;;;2.77;100.00;97861.31;4974585;28;20464;-73
2022/11/12 05:20:13;;;;;;;15.23;6.03;;;;;;;2.82;100.00;97859.59;4975893;28;20425;-72
2022/11/12 05:22:58;;;;;;;17.23;5.70;;;;;;;2.93;100.00;97863.13;4975168;28;21007;-72
2022/11/12 05:25:51;;;;;;;8.63;5.80;;;;;;;2.60;100.00;97835.19;4962316;28;20588;-72
2022/11/12 05:28:36;;;;;;;16.33;5.50;;;;;;;2.71;100.00;97863.06;4993264;28;20464;-75
2022/11/12 05:31:22;;;;;;;46.83;8.67;;;;;;;2.70;100.00;97858.88;4997791;28;20423;-74
2022/11/12 05:34:07;;;;;;;39.43;8.23;;;;;;;2.53;100.00;97842.38;4998167;28;20460;-74
2022/11/12 05:36:52;;;;;;;31.20;7.67;;;;;;;2.75;100.00;97855.53;4997056;28;20432;-74
2022/11/12 05:39:38;;;;;;;23.20;6.77;;;;;;;2.66;100.00;97834.25;5011363;28;20406;-74
2022/11/12 05:42:23;;;;;;;11.97;6.10;;;;;;;2.61;100.00;97848.00;5016809;28;20427;-75
2022/11/12 05:45:08;;;;;;;26.80;6.30;;;;;;;2.67;100.00;97862.75;5017240;28;20407;-74
2022/11/12 05:47:54;;;;;;;26.20;9.97;;;;;;;2.60;100.00;97849.03;5017527;28;20516;-74
2022/11/12 05:50:39;;;;;;;37.33;7.23;;;;;;;2.65;100.00;97859.56;5017643;28;20436;-75
2022/11/12 05:53:44;;;;;;;22.67;6.60;;;;;;;2.69;100.00;97862.50;4994335;28;20432;-73
2022/11/12 05:56:30;;;;;;;22.57;6.73;;;;;;;2.79;100.00;97865.25;4992039;28;20442;-72
2022/11/12 05:59:15;;;;;;;70.97;10.23;;;;;;;2.69;100.00;97846.84;4991011;28;20446;-73
2022/11/12 06:02:00;;;;;;;34.67;7.60;;;;;;;2.66;100.00;97837.63;4991834;28;20921;-73
2022/11/12 06:04:45;;;;;;;37.83;7.60;;;;;;;2.78;100.00;97881.16;4991657;28;20467;-72
2022/11/12 06:07:31;;;;;;;24.40;6.33;;;;;;;2.63;100.00;97877.28;4990619;28;21042;-72
2022/11/12 06:10:16;;;;;;;28.67;6.40;;;;;;;2.58;100.00;97861.56;4995709;28;20498;-72
2022/11/12 06:13:04;;;;;;;31.43;6.67;;;;;;;2.65;100.00;97874.44;4995921;28;20414;-73
2022/11/12 06:15:54;;;;;;;33.57;5.57;;;;;;;2.50;100.00;97856.72;4995687;28;20430;-72
2022/11/12 06:18:39;;;;;;;46.07;9.10;;;;;;;2.10;100.00;97850.78;4994454;28;20462;-73
2022/11/12 06:21:26;;;;;;;43.03;8.57;;;;;;;2.13;100.00;97864.16;4994575;28;20423;-73
2022/11/12 06:24:11;;;;;;;32.47;8.17;;;;;;;2.20;100.00;97875.25;4987716;28;20469;-73
2022/11/12 06:26:56;;;;;;;60.57;10.00;;;;;;;2.08;100.00;97882.31;4975947;28;21030;-72
2022/11/12 06:29:42;;;;;;;48.77;12.93;;;;;;;1.94;100.00;97850.50;4988698;28;20432;-72
2022/11/12 06:32:26;;;;;;;30.00;6.97;;;;;;;2.07;100.00;97883.34;4988755;28;20436;-73
2022/11/12 06:35:12;;;;;;;48.67;8.70;;;;;;;2.01;100.00;97873.88;4979660;28;20933;-72
2022/11/12 06:37:57;;;;;;;16.13;5.53;;;;;;;1.95;100.00;97859.91;4995167;28;20447;-72
2022/11/12 06:40:43;;;;;;;82.10;13.53;;;;;;;1.93;100.00;97880.22;4995008;28;20891;-72
2022/11/12 06:43:30;;;;;;;91.53;15.70;;;;;;;2.01;100.00;97885.09;4993936;28;20466;-73
2022/11/12 06:46:17;;;;;;;32.63;8.50;;;;;;;2.07;100.00;97896.41;4995029;28;21012;-72
2022/11/12 06:49:02;;;;;;;36.57;10.60;;;;;;;2.10;100.00;97888.09;4994901;28;20419;-73
2022/11/12 06:51:50;;;;;;;48.97;8.93;;;;;;;2.13;100.00;97885.03;4994363;28;20494;-73
2022/11/12 06:54:35;;;;;;;18.73;7.00;;;;;;;2.01;100.00;97853.00;4993674;28;20571;-72
2022/11/12 06:57:20;;;;;;;73.47;9.87;;;;;;;2.12;100.00;97890.47;4993571;28;20815;-73
2022/11/12 07:00:08;;;;;;;44.97;8.83;;;;;;;2.13;100.00;97895.44;4995146;28;20420;-72
2022/11/12 07:02:53;;;;;;;72.30;10.73;;;;;;;1.92;100.00;97843.94;4993519;28;20471;-72
2022/11/12 07:05:38;;;;;;;26.57;7.17;;;;;;;2.06;100.00;97853.06;4993608;28;20475;-72
2022/11/12 07:08:23;;;;;;;39.83;8.53;;;;;;;2.14;100.00;97888.41;4993241;28;20511;-72
2022/11/12 07:11:10;;;;;;;42.63;9.97;;;;;;;1.97;100.00;97872.72;4974212;28;21022;-73
2022/11/12 07:13:55;;;;;;;41.80;9.10;;;;;;;2.07;100.00;97867.72;4974031;28;20769;-72
2022/11/12 07:16:40;;;;;;;32.43;9.40;;;;;;;2.23;100.00;97897.47;4974724;28;20445;-73
2022/11/12 07:19:26;;;;;;;25.40;9.93;;;;;;;2.46;100.00;97897.38;4973392;28;20781;-72
2022/11/12 07:22:11;;;;;;;43.60;9.70;;;;;;;2.32;100.00;97878.59;4974419;28;20436;-72
2022/11/12 07:24:56;;;;;;;38.90;9.60;;;;;;;2.22;100.00;97904.50;4973100;28;20476;-72
2022/11/12 07:27:41;;;;;;;36.23;9.80;;;;;;;2.10;100.00;97888.09;4974464;28;20572;-72
2022/11/12 07:30:27;;;;;;;29.37;7.77;;;;;;;2.06;100.00;97866.91;4974785;28;20769;-72
2022/11/12 07:33:12;;;;;;;54.93;10.87;;;;;;;2.12;100.00;97893.09;4974663;28;20500;-72
2022/11/12 07:36:02;;;;;;;23.97;7.27;;;;;;;2.27;100.00;97902.00;4973202;28;20429;-72
2022/11/12 07:38:50;;;;;;;22.20;8.73;;;;;;;2.42;100.00;97887.63;4974240;28;20428;-72
2022/11/12 07:41:35;;;;;;;11.47;6.77;;;;;;;2.46;100.00;97889.53;4973091;28;20440;-73
2022/11/12 07:44:20;;;;;;;12.87;6.87;;;;;;;2.35;100.00;97877.34;4972954;28;20880;-72
2022/11/12 07:47:06;;;;;;;27.93;8.30;;;;;;;2.41;100.00;97875.63;4974242;28;20968;-73
2022/11/12 07:49:51;;;;;;;11.27;6.27;;;;;;;2.56;100.00;97881.09;4972877;28;20492;-72
2022/11/12 07:52:36;;;;;;;17.50;8.60;;;;;;;2.67;100.00;97874.97;4986634;28;20910;-73
2022/11/12 07:55:21;;;;;;;17.90;7.13;;;;;;;2.87;100.00;97887.59;4973859;28;20948;-73
2022/11/12 07:58:06;;;;;;;9.83;6.97;;;;;;;2.99;100.00;97909.22;4973592;28;20503;-72
2022/11/12 08:00:52;;;;;;;33.70;9.40;;;;;;;3.04;100.00;97919.72;4988041;28;20484;-72
2022/11/12 08:03:38;;;;;;;13.50;7.37;;;;;;;2.82;100.00;97906.59;4993120;28;20462;-72
2022/11/12 08:06:23;;;;;;;11.60;6.73;;;;;;;2.84;100.00;97922.03;4991812;28;20424;-72
2022/11/12 08:09:09;;;;;;;8.37;6.37;;;;;;;2.95;100.00;97914.13;5002422;28;20514;-72
2022/11/12 08:11:54;;;;;;;9.93;6.20;;;;;;;2.83;100.00;97886.50;4992691;28;20451;-72
2022/11/12 08:14:40;;;;;;;7.40;6.23;;;;;;;2.97;100.00;97891.16;4992976;28;20720;-73
2022/11/12 08:17:25;;;;;;;15.60;7.73;;;;;;;2.99;100.00;97885.69;4994256;28;20455;-72
2022/11/12 08:20:11;;;;;;;21.13;7.97;;;;;;;3.07;100.00;97876.66;5000006;28;20443;-72
2022/11/12 08:23:00;;;;;;;19.07;10.10;;;;;;;3.15;100.00;97902.38;4995654;28;20427;-72
2022/11/12 08:25:45;;;;;;;7.83;7.10;;;;;;;3.06;100.00;97895.97;4976780;28;20459;-72
2022/11/12 08:28:32;;;;;;;13.43;7.63;;;;;;;3.26;100.00;97911.97;4974808;28;20533;-72
2022/11/12 08:31:22;;;;;;;8.50;6.90;;;;;;;3.37;100.00;97903.22;4985909;28;20582;-73
2022/11/12 08:34:13;;;;;;;19.87;5.80;;;;;;;3.29;100.00;97887.94;4993192;28;20435;-72
2022/11/12 08:37:06;;;;;;;9.37;8.07;;;;;;;3.35;100.00;97886.22;4993955;28;20531;-72
2022/11/12 08:39:51;;;;;;;6.23;5.53;;;;;;;3.51;100.00;97906.28;4994770;28;20479;-72
2022/11/12 08:42:37;;;;;;;7.93;6.87;;;;;;;3.50;100.00;97918.56;4992415;28;20428;-72
2022/11/12 08:45:22;;;;;;;7.33;6.07;;;;;;;3.51;100.00;97911.53;4992136;28;20558;-72
2022/11/12 08:48:13;;;;;;;9.40;5.00;;;;;;;3.61;100.00;97916.09;4975417;28;20810;-72
2022/11/12 08:51:01;;;;;;;14.57;6.07;;;;;;;3.54;100.00;97893.53;4971853;28;20427;-72
2022/11/12 08:53:46;;;;;;;6.30;5.70;;;;;;;3.31;100.00;97872.03;4971079;28;20423;-72
2022/11/12 08:56:32;;;;;;;6.03;5.43;;;;;;;3.69;100.00;97902.59;4992327;28;20443;-72
2022/11/12 08:59:17;;;;;;;6.27;5.53;;;;;;;3.67;100.00;97888.97;4992094;28;20415;-72
2022/11/12 09:02:02;;;;;;;8.10;5.63;;;;;;;3.85;100.00;97913.00;4991143;28;20942;-72
2022/11/12 09:04:48;;;;;;;12.83;9.40;;;;;;;4.05;100.00;97917.69;4991885;28;20459;-72
2022/11/12 09:07:33;;;;;;;9.63;6.30;;;;;;;3.85;100.00;97915.63;4990765;28;20459;-72
2022/11/12 09:10:36;;;;;;;10.63;6.07;;;;;;;3.73;100.00;97906.31;4990675;28;20571;-72
2022/11/12 09:13:21;;;;;;;18.60;8.03;;;;;;;3.91;100.00;97923.53;4972435;28;20547;-72
2022/11/12 09:16:09;;;;;;;11.80;6.33;;;;;;;3.66;100.00;97879.56;4972419;28;20544;-72
2022/11/12 09:18:54;;;;;;;7.47;5.53;;;;;;;3.52;100.00;97882.50;4971107;28;20428;-72
2022/11/12 09:21:39;;;;;;;9.47;6.33;;;;;;;3.80;100.00;97912.94;4971287;28;20639;-72
2022/11/12 09:24:24;;;;;;;8.47;7.63;;;;;;;3.86;100.00;97909.34;4972235;28;20456;-72
2022/11/12 09:27:09;;;;;;;15.80;7.80;;;;;;;3.88;100.00;97918.81;4971102;28;20459;-73
2022/11/12 09:29:55;;;;;;;8.13;6.70;;;;;;;3.96;100.00;97924.38;4985413;28;20431;-72
2022/11/12 09:32:40;;;;;;;12.30;9.10;;;;;;;4.09;100.00;97929.25;4977009;28;20421;-72
2022/11/12 09:35:26;;;;;;;9.33;8.40;;;;;;;3.90;100.00;97907.06;4972251;28;20420;-72
2022/11/12 09:38:13;;;;;;;16.23;8.77;;;;;;;3.96;100.00;97920.97;4971880;28;20448;-72
2022/11/12 09:41:12;;;;;;;10.20;5.90;;;;;;;4.51;100.00;97922.63;4971024;28;20428;-72
2022/11/12 09:44:24;;;;;;;26.90;8.90;;;;;;;4.05;100.00;97930.00;4975892;28;20463;-72
2022/11/12 09:47:31;;;;;;;12.63;8.27;;;;;;;4.00;100.00;97917.63;4977368;28;20488;-72
2022/11/12 09:50:54;;;;;;;12.90;9.20;;;;;;;4.18;100.00;97903.44;4972438;28;20415;-73
2022/11/12 09:53:49;;;;;;;8.67;7.60;;;;;;;4.54;100.00;97909.00;4976396;28;20963;-72
2022/11/12 09:56:34;;;;;;;7.20;6.50;;;;;;;4.72;100.00;97919.94;5010600;28;20514;-73
2022/11/12 09:59:21;;;;;;;8.40;7.60;;;;;;;4.76;100.00;97922.84;4995604;28;20439;-73
2022/11/12 10:02:25;;;;;;;9.23;7.33;;;;;;;4.66;100.00;97902.59;4977311;28;20495;-72
2022/11/12 10:05:29;;;;;;;6.03;5.43;;;;;;;4.65;100.00;97918.56;4966763;28;20467;-73
2022/11/12 10:08:38;;;;;;;7.60;5.70;;;;;;;4.74;100.00;97903.97;4978935;28;20440;-73
2022/11/12 10:18:38;;;;;;;10.30;6.20;;;;;;;5.05;100.00;97903.16;4978130;28;21006;-73
2022/11/12 10:21:29;;;;;;;9.17;7.37;;;;;;;4.83;100.00;97920.03;4978361;28;20512;-73
2022/11/12 10:24:14;;;;;;;9.10;7.27;;;;;;;4.87;100.00;97910.63;4977908;28;21078;-73
2022/11/12 10:27:21;;;;;;;8.00;7.20;;;;;;;5.06;100.00;97882.97;4978087;28;20542;-73
2022/11/12 10:30:15;;;;;;;10.60;7.90;;;;;;;5.05;100.00;97902.38;4993328;28;20423;-73
2022/11/12 10:33:02;;;;;;;7.23;6.47;;;;;;;5.05;100.00;97870.91;4981937;28;20436;-73
2022/11/12 10:35:48;;;;;;;6.53;5.93;;;;;;;5.44;100.00;97897.66;4978506;28;20595;-73
2022/11/12 10:38:34;;;;;;;24.13;22.07;;;;;;;5.24;100.00;97877.34;4983351;28;20518;-73
2022/11/12 10:41:24;;;;;;;41.23;37.77;;;;;;;5.32;100.00;97876.06;4997787;28;20571;-72
2022/11/12 10:44:16;;;;;;;14.97;13.57;;;;;;;5.61;100.00;97897.50;5005002;28;20563;-72
2022/11/12 10:47:20;;;;;;;14.07;12.60;;;;;;;5.75;100.00;97896.00;4998179;28;20592;-72
2022/11/12 10:50:09;;;;;;;17.13;12.00;;;;;;;5.83;100.00;97897.31;4997868;28;20415;-72
2022/11/12 10:52:57;;;;;;;41.23;37.63;;;;;;;5.80;100.00;97890.75;4997598;28;20419;-72
2022/11/12 10:56:01;;;;;;;14.40;10.77;;;;;;;5.79;100.00;97885.75;4994475;28;20935;-72
2022/11/12 10:59:08;;;;;;;11.13;10.00;;;;;;;5.79;100.00;97893.63;4993723;28;20422;-72
2022/11/12 11:01:59;;;;;;;9.50;8.57;;;;;;;5.49;100.00;97878.56;4965354;28;20909;-73
2022/11/12 11:04:45;;;;;;;10.67;9.60;;;;;;;5.44;100.00;97860.13;4976033;28;20448;-73
2022/11/12 11:07:30;;;;;;;9.50;8.60;;;;;;;5.56;100.00;97845.00;4975001;28;20995;-72
2022/11/12 11:10:28;;;;;;;8.83;7.97;;;;;;;5.55;100.00;97867.03;4973735;28;20990;-72
2022/11/12 11:13:22;;;;;;;11.50;8.17;;;;;;;5.85;100.00;97874.22;4975306;28;20420;-72
2022/11/12 11:16:13;;;;;;;9.03;7.90;;;;;;;5.97;100.00;97881.91;4994437;28;20408;-72
2022/11/12 11:19:02;;;;;;;20.47;18.23;;;;;;;6.03;100.00;97858.06;4994430;28;20427;-72
2022/11/12 11:21:48;;;;;;;20.20;18.07;;;;;;;6.17;100.00;97876.75;4993837;28;20419;-74
2022/11/12 11:24:43;;;;;;;11.13;10.03;;;;;;;6.37;100.00;97878.59;4984835;28;20484;-74
2022/11/12 11:27:46;;;;;;;8.47;6.80;;;;;;;6.26;100.00;97853.38;4974730;28;20996;-74
2022/11/12 11:30:32;;;;;;;7.60;6.87;;;;;;;6.11;100.00;97849.66;4973920;28;20436;-74
2022/11/12 11:33:38;;;;;;;8.07;7.30;;;;;;;6.34;100.00;97843.16;4974839;28;20427;-74
2022/11/12 11:36:45;;;;;;;8.20;7.30;;;;;;;6.52;100.00;97847.88;4973284;28;20424;-74
2022/11/12 11:39:30;;;;;;;6.17;5.60;;;;;;;6.48;100.00;97867.06;4974516;28;20841;-74
2022/11/12 11:42:44;;;;;;;8.30;7.60;;;;;;;6.59;100.00;97852.09;4974817;28;20420;-75
2022/11/12 11:45:36;;;;;;;7.60;6.90;;;;;;;6.60;100.00;97858.94;4974706;28;21053;-75
2022/11/12 11:48:49;;;;;;;8.30;6.27;;;;;;;7.08;100.00;97858.41;4973375;28;20508;-75
2022/11/12 11:52:06;;;;;;;7.70;6.37;;;;;;;6.97;100.00;97859.47;4974241;28;20511;-75
2022/11/12 11:55:11;;;;;;;8.03;6.43;;;;;;;7.24;100.00;97861.00;4976050;28;20425;-76
2022/11/12 11:58:14;;;;;;;7.23;6.53;;;;;;;7.41;100.00;97849.13;4974241;28;20472;-73
2022/11/12 12:01:19;;;;;;;6.93;6.30;;;;;;;7.63;100.00;97848.00;4973108;28;20424;-73
2022/11/12 12:04:29;;;;;;;7.30;6.70;;;;;;;7.75;100.00;97850.31;4974135;28;20436;-73
2022/11/12 12:07:26;;;;;;;5.67;5.17;;;;;;;7.71;100.00;97842.94;4974746;28;20520;-73
2022/11/12 12:10:24;;;;;;;7.13;5.67;;;;;;;7.35;100.00;97826.50;4973618;28;20536;-73
2022/11/12 12:13:33;;;;;;;7.50;6.83;;;;;;;7.66;100.00;97837.72;4973073;28;20560;-74
2022/11/12 12:16:36;;;;;;;6.90;6.30;;;;;;;7.69;100.00;97836.38;4972960;28;20457;-73
2022/11/12 12:19:45;;;;;;;6.87;6.27;;;;;;;7.91;100.00;97823.66;4974078;28;20428;-74
2022/11/12 12:22:47;;;;;;;7.83;7.03;;;;;;;8.22;100.00;97826.88;4973825;28;20560;-75
2022/11/12 12:25:37;;;;;;;6.70;6.10;;;;;;;8.37;100.00;97817.31;4973691;28;20619;-75
2022/11/12 12:28:52;;;;;;;6.00;5.50;;;;;;;8.78;100.00;97844.16;4973593;28;20441;-75
2022/11/12 12:31:46;;;;;;;7.50;6.33;;;;;;;8.30;100.00;97826.31;4984588;28;20432;-75
2022/11/12 12:34:41;;;;;;;6.23;5.70;;;;;;;8.38;100.00;97829.44;4972574;28;20480;-75
2022/11/12 12:37:34;;;;;;;6.57;6.00;;;;;;;8.69;100.00;97830.03;4972522;28;20964;-74
2022/11/12 12:40:34;;;;;;;6.10;5.57;;;;;;;8.74;100.00;97832.59;4973581;28;20436;-75
2022/11/12 12:43:27;;;;;;;6.23;5.63;;;;;;;8.53;100.00;97810.88;4972461;28;20922;-75
2022/11/12 12:46:15;;;;;;;6.30;5.77;;;;;;;8.77;100.00;97803.03;4972110;28;20488;-75
2022/11/12 12:49:03;;;;;;;7.43;6.67;;;;;;;8.73;100.00;97808.09;4972374;28;20424;-74
2022/11/12 12:51:48;;;;;;;7.97;6.73;;;;;;;8.83;100.00;97823.03;4973418;28;20592;-76
2022/11/12 12:54:39;;;;;;;6.17;5.67;;;;;;;9.16;100.00;97813.47;4973009;28;20523;-74
2022/11/12 12:57:36;;;;;;;8.43;5.27;;;;;;;8.98;100.00;97783.31;4972215;28;20452;-74
2022/11/12 13:00:28;;;;;;;5.90;5.43;;;;;;;9.16;100.00;97814.25;4992388;28;20436;-74
2022/11/12 13:03:45;;;;;;;6.53;5.37;;;;;;;9.16;100.00;97801.06;4993474;28;20420;-74
2022/11/12 13:06:34;;;;;;;6.67;6.07;;;;;;;9.49;100.00;97795.97;4992455;28;20467;-74
2022/11/12 13:09:24;;;;;;;6.80;5.67;;;;;;;9.59;100.00;97773.91;4992330;28;20534;-74
2022/11/12 13:15:14;;;;;;;6.73;6.20;;;;;;;9.64;100.00;97806.34;4998043;28;20418;-72
2022/11/12 13:18:07;;;;;;;8.53;7.73;;;;;;;10.02;100.00;97798.47;4991920;28;20546;-74
2022/11/12 13:21:14;;;;;;;7.73;6.93;;;;;;;10.28;100.00;97809.44;4993123;28;20436;-75
2022/11/12 13:27:12;;;;;;;6.87;6.23;;;;;;;9.90;100.00;97788.31;4974028;28;20452;-75
2022/11/12 13:29:57;;;;;;;6.50;5.90;;;;;;;9.67;100.00;97792.56;4972634;28;20432;-75
2022/11/12 13:32:53;;;;;;;6.90;6.20;;;;;;;9.77;100.00;97800.38;4972519;28;20432;-75
2022/11/12 13:35:39;;;;;;;6.30;5.80;;;;;;;9.71;100.00;97761.09;4972585;28;20975;-75
2022/11/12 13:38:25;;;;;;;8.40;6.03;;;;;;;9.79;100.00;97792.16;4971420;28;20479;-75